sensor_id;sensor_type;location;lat;lon;timestamp;temperature;humidity
35607;DHT22;21729;58.392;15.656;2024-02-15T00:01:13;1.20;1.00
35607;DHT22;21729;58.392;15.656;2024-02-15T00:03:40;1.20;1.00
35607;DHT22;21729;58.392;15.656;2024-02-15T00:06:07;1.20;1.00
35607;DHT22;21729;58.392;15.656;2024-02-15T00:08:34;1.20;1.00
35607;DHT22;21729;58.392;15.656;2024-02-15T00:11:03;1.20;1.00
35607;DHT22;21729;58.392;15.656;2024-02-15T00:13:30;1.20;1.00
35607;DHT22;21729;58.392;15.656;2024-02-15T00:15:59;1.30;1.00
35607;DHT22;21729;58.392;15.656;2024-02-15T00:18:26;1.20;1.00
35607;DHT22;21729;58.392;15.656;2024-02-15T00:20:53;1.20;1.00
35607;DHT22;21729;58.392;15.656;2024-02-15T00:23:20;1.20;1.00
35607;DHT22;21729;58.392;15.656;2024-02-15T00:25:47;1.30;1.00
35607;DHT22;21729;58.392;15.656;2024-02-15T00:28:17;1.20;1.00
35607;DHT22;21729;58.392;15.656;2024-02-15T00:30:44;1.20;1.00
35607;DHT22;21729;58.392;15.656;2024-02-15T00:33:11;1.20;1.00
35607;DHT22;21729;58.392;15.656;2024-02-15T00:35:38;1.20;1.00
35607;DHT22;21729;58.392;15.656;2024-02-15T00:38:05;1.20;1.00
35607;DHT22;21729;58.392;15.656;2024-02-15T00:40:32;1.20;1.00
35607;DHT22;21729;58.392;15.656;2024-02-15T00:43:00;1.20;1.00
35607;DHT22;21729;58.392;15.656;2024-02-15T00:45:28;1.20;1.00
35607;DHT22;21729;58.392;15.656;2024-02-15T00:47:55;1.10;1.00
35607;DHT22;21729;58.392;15.656;2024-02-15T00:50:22;1.20;1.00
35607;DHT22;21729;58.392;15.656;2024-02-15T00:52:49;1.20;1.00
35607;DHT22;21729;58.392;15.656;2024-02-15T00:55:17;1.20;1.00
35607;DHT22;21729;58.392;15.656;2024-02-15T00:57:44;1.20;1.00
35607;DHT22;21729;58.392;15.656;2024-02-15T01:00:12;1.20;1.00
35607;DHT22;21729;58.392;15.656;2024-02-15T01:02:41;1.20;1.00
35607;DHT22;21729;58.392;15.656;2024-02-15T01:05:08;1.20;1.00
35607;DHT22;21729;58.392;15.656;2024-02-15T01:07:35;1.20;1.00
35607;DHT22;21729;58.392;15.656;2024-02-15T01:10:03;1.20;1.00
35607;DHT22;21729;58.392;15.656;2024-02-15T01:12:31;1.20;1.00
35607;DHT22;21729;58.392;15.656;2024-02-15T01:14:58;1.10;1.00
35607;DHT22;21729;58.392;15.656;2024-02-15T01:17:25;1.20;1.00
35607;DHT22;21729;58.392;15.656;2024-02-15T01:19:54;1.20;1.00
35607;DHT22;21729;58.392;15.656;2024-02-15T01:22:21;1.20;1.00
35607;DHT22;21729;58.392;15.656;2024-02-15T01:24:52;1.10;1.00
35607;DHT22;21729;58.392;15.656;2024-02-15T01:27:19;1.10;1.00
35607;DHT22;21729;58.392;15.656;2024-02-15T01:29:46;1.10;1.00
35607;DHT22;21729;58.392;15.656;2024-02-15T01:32:13;1.10;1.00
35607;DHT22;21729;58.392;15.656;2024-02-15T01:34:41;1.10;1.00
35607;DHT22;21729;58.392;15.656;2024-02-15T01:37:09;1.10;1.00
35607;DHT22;21729;58.392;15.656;2024-02-15T01:39:36;1.10;1.00
35607;DHT22;21729;58.392;15.656;2024-02-15T01:42:03;1.00;1.00
35607;DHT22;21729;58.392;15.656;2024-02-15T01:44:30;1.10;1.00
35607;DHT22;21729;58.392;15.656;2024-02-15T01:46:58;1.10;1.00
35607;DHT22;21729;58.392;15.656;2024-02-15T01:49:25;1.10;1.00
35607;DHT22;21729;58.392;15.656;2024-02-15T01:51:56;1.00;1.00
35607;DHT22;21729;58.392;15.656;2024-02-15T01:54:25;1.00;1.00
35607;DHT22;21729;58.392;15.656;2024-02-15T01:56:53;1.10;1.00
35607;DHT22;21729;58.392;15.656;2024-02-15T01:59:23;1.10;1.00
35607;DHT22;21729;58.392;15.656;2024-02-15T02:01:50;1.00;1.00
35607;DHT22;21729;58.392;15.656;2024-02-15T02:04:17;1.10;1.00
35607;DHT22;21729;58.392;15.656;2024-02-15T02:06:44;1.10;1.00
35607;DHT22;21729;58.392;15.656;2024-02-15T02:09:11;1.00;1.00
35607;DHT22;21729;58.392;15.656;2024-02-15T02:11:41;1.10;1.00
35607;DHT22;21729;58.392;15.656;2024-02-15T02:14:08;1.10;1.00
35607;DHT22;21729;58.392;15.656;2024-02-15T02:16:37;1.00;1.00
35607;DHT22;21729;58.392;15.656;2024-02-15T02:19:04;1.10;1.00
35607;DHT22;21729;58.392;15.656;2024-02-15T02:21:34;1.10;1.00
35607;DHT22;21729;58.392;15.656;2024-02-15T02:24:03;1.10;1.00
35607;DHT22;21729;58.392;15.656;2024-02-15T02:26:35;1.10;1.00
35607;DHT22;21729;58.392;15.656;2024-02-15T02:29:02;1.10;1.00
35607;DHT22;21729;58.392;15.656;2024-02-15T02:31:32;1.00;1.00
35607;DHT22;21729;58.392;15.656;2024-02-15T02:34:00;1.10;1.00
35607;DHT22;21729;58.392;15.656;2024-02-15T02:36:27;1.10;1.00
35607;DHT22;21729;58.392;15.656;2024-02-15T02:38:55;1.10;1.00
35607;DHT22;21729;58.392;15.656;2024-02-15T02:41:26;1.10;1.00
35607;DHT22;21729;58.392;15.656;2024-02-15T02:43:55;1.10;1.00
35607;DHT22;21729;58.392;15.656;2024-02-15T02:46:23;1.00;1.00
35607;DHT22;21729;58.392;15.656;2024-02-15T02:48:50;1.00;1.00
35607;DHT22;21729;58.392;15.656;2024-02-15T02:51:17;1.00;1.00
35607;DHT22;21729;58.392;15.656;2024-02-15T02:53:44;1.10;1.00
35607;DHT22;21729;58.392;15.656;2024-02-15T02:56:11;1.10;1.00
35607;DHT22;21729;58.392;15.656;2024-02-15T02:58:38;1.10;1.00
35607;DHT22;21729;58.392;15.656;2024-02-15T03:01:09;1.00;1.00
35607;DHT22;21729;58.392;15.656;2024-02-15T03:03:36;1.00;1.00
35607;DHT22;21729;58.392;15.656;2024-02-15T03:06:05;1.00;1.00
35607;DHT22;21729;58.392;15.656;2024-02-15T03:08:32;1.00;1.00
35607;DHT22;21729;58.392;15.656;2024-02-15T03:10:59;1.00;1.00
35607;DHT22;21729;58.392;15.656;2024-02-15T03:13:27;1.00;1.00
35607;DHT22;21729;58.392;15.656;2024-02-15T03:15:54;1.00;1.00
35607;DHT22;21729;58.392;15.656;2024-02-15T03:18:22;1.00;1.00
35607;DHT22;21729;58.392;15.656;2024-02-15T03:20:50;1.00;1.00
35607;DHT22;21729;58.392;15.656;2024-02-15T03:23:17;1.00;1.00
35607;DHT22;21729;58.392;15.656;2024-02-15T03:25:44;1.00;1.00
35607;DHT22;21729;58.392;15.656;2024-02-15T03:28:11;1.00;1.00
35607;DHT22;21729;58.392;15.656;2024-02-15T03:30:38;1.00;1.00
35607;DHT22;21729;58.392;15.656;2024-02-15T03:33:05;1.00;1.00
35607;DHT22;21729;58.392;15.656;2024-02-15T03:35:34;1.00;1.00
35607;DHT22;21729;58.392;15.656;2024-02-15T03:38:01;0.90;1.00
35607;DHT22;21729;58.392;15.656;2024-02-15T03:40:28;1.00;1.00
35607;DHT22;21729;58.392;15.656;2024-02-15T03:42:56;1.00;1.00
35607;DHT22;21729;58.392;15.656;2024-02-15T03:45:23;1.00;1.00
35607;DHT22;21729;58.392;15.656;2024-02-15T03:47:51;1.00;1.00
35607;DHT22;21729;58.392;15.656;2024-02-15T03:50:18;1.00;1.00
35607;DHT22;21729;58.392;15.656;2024-02-15T03:52:49;1.00;1.00
35607;DHT22;21729;58.392;15.656;2024-02-15T03:55:17;1.00;1.00
35607;DHT22;21729;58.392;15.656;2024-02-15T03:57:44;1.00;1.00
35607;DHT22;21729;58.392;15.656;2024-02-15T04:00:12;1.00;1.00
35607;DHT22;21729;58.392;15.656;2024-02-15T04:02:46;0.90;1.00
35607;DHT22;21729;58.392;15.656;2024-02-15T04:05:15;0.90;1.00
35607;DHT22;21729;58.392;15.656;2024-02-15T04:07:44;0.90;1.00
35607;DHT22;21729;58.392;15.656;2024-02-15T04:10:12;0.90;1.00
35607;DHT22;21729;58.392;15.656;2024-02-15T04:12:39;0.90;1.00
35607;DHT22;21729;58.392;15.656;2024-02-15T04:15:08;0.90;1.00
35607;DHT22;21729;58.392;15.656;2024-02-15T04:17:39;0.90;1.00
35607;DHT22;21729;58.392;15.656;2024-02-15T04:20:08;0.90;1.00
35607;DHT22;21729;58.392;15.656;2024-02-15T04:22:37;0.90;1.00
35607;DHT22;21729;58.392;15.656;2024-02-15T04:25:05;0.90;1.00
35607;DHT22;21729;58.392;15.656;2024-02-15T04:27:34;0.90;1.00
35607;DHT22;21729;58.392;15.656;2024-02-15T04:30:01;0.90;1.00
35607;DHT22;21729;58.392;15.656;2024-02-15T04:32:30;0.90;1.00
35607;DHT22;21729;58.392;15.656;2024-02-15T04:34:59;0.90;1.00
35607;DHT22;21729;58.392;15.656;2024-02-15T04:37:27;0.90;1.00
35607;DHT22;21729;58.392;15.656;2024-02-15T04:39:56;0.90;1.00
35607;DHT22;21729;58.392;15.656;2024-02-15T04:42:23;0.90;1.00
35607;DHT22;21729;58.392;15.656;2024-02-15T04:44:55;0.90;1.00
35607;DHT22;21729;58.392;15.656;2024-02-15T04:47:22;0.90;1.00
35607;DHT22;21729;58.392;15.656;2024-02-15T04:49:49;0.90;1.00
35607;DHT22;21729;58.392;15.656;2024-02-15T04:52:16;0.90;1.00
35607;DHT22;21729;58.392;15.656;2024-02-15T04:54:43;0.90;1.00
35607;DHT22;21729;58.392;15.656;2024-02-15T04:57:11;0.90;7.80
35607;DHT22;21729;58.392;15.656;2024-02-15T04:59:38;0.90;11.80
35607;DHT22;21729;58.392;15.656;2024-02-15T05:02:06;0.90;7.70
35607;DHT22;21729;58.392;15.656;2024-02-15T05:04:34;0.80;5.10
35607;DHT22;21729;58.392;15.656;2024-02-15T05:07:02;0.80;6.20
35607;DHT22;21729;58.392;15.656;2024-02-15T05:09:29;0.80;8.70
35607;DHT22;21729;58.392;15.656;2024-02-15T05:12:01;0.90;10.50
35607;DHT22;21729;58.392;15.656;2024-02-15T05:14:28;0.90;11.40
35607;DHT22;21729;58.392;15.656;2024-02-15T05:16:55;0.90;11.90
35607;DHT22;21729;58.392;15.656;2024-02-15T05:19:23;0.80;10.90
35607;DHT22;21729;58.392;15.656;2024-02-15T05:21:50;0.80;11.80
35607;DHT22;21729;58.392;15.656;2024-02-15T05:24:17;0.90;12.10
35607;DHT22;21729;58.392;15.656;2024-02-15T05:26:46;0.90;13.30
35607;DHT22;21729;58.392;15.656;2024-02-15T05:29:14;0.80;13.70
35607;DHT22;21729;58.392;15.656;2024-02-15T05:31:42;0.80;12.30
35607;DHT22;21729;58.392;15.656;2024-02-15T05:34:10;0.80;11.50
35607;DHT22;21729;58.392;15.656;2024-02-15T05:36:39;0.80;10.50
35607;DHT22;21729;58.392;15.656;2024-02-15T05:39:06;0.80;11.40
35607;DHT22;21729;58.392;15.656;2024-02-15T05:41:34;0.80;10.20
35607;DHT22;21729;58.392;15.656;2024-02-15T05:44:01;0.80;12.00
35607;DHT22;21729;58.392;15.656;2024-02-15T05:46:30;0.80;12.00
35607;DHT22;21729;58.392;15.656;2024-02-15T05:48:58;0.80;12.20
35607;DHT22;21729;58.392;15.656;2024-02-15T05:51:25;0.80;13.70
35607;DHT22;21729;58.392;15.656;2024-02-15T05:53:53;0.80;12.30
35607;DHT22;21729;58.392;15.656;2024-02-15T05:56:24;0.80;10.90
35607;DHT22;21729;58.392;15.656;2024-02-15T05:58:51;0.80;10.70
35607;DHT22;21729;58.392;15.656;2024-02-15T06:01:18;0.80;12.30
35607;DHT22;21729;58.392;15.656;2024-02-15T06:03:45;0.80;11.30
35607;DHT22;21729;58.392;15.656;2024-02-15T06:06:13;0.80;11.70
35607;DHT22;21729;58.392;15.656;2024-02-15T06:08:40;0.80;11.70
35607;DHT22;21729;58.392;15.656;2024-02-15T06:11:09;0.80;11.70
35607;DHT22;21729;58.392;15.656;2024-02-15T06:13:36;0.80;11.90
35607;DHT22;21729;58.392;15.656;2024-02-15T06:16:03;0.50;10.50
35607;DHT22;21729;58.392;15.656;2024-02-15T06:18:34;0.70;10.40
35607;DHT22;21729;58.392;15.656;2024-02-15T06:21:03;0.70;9.50
35607;DHT22;21729;58.392;15.656;2024-02-15T06:23:31;0.70;15.60
35607;DHT22;21729;58.392;15.656;2024-02-15T06:26:02;0.70;10.50
35607;DHT22;21729;58.392;15.656;2024-02-15T06:28:30;0.70;8.90
35607;DHT22;21729;58.392;15.656;2024-02-15T06:31:15;0.70;8.00
35607;DHT22;21729;58.392;15.656;2024-02-15T06:33:59;0.70;8.40
35607;DHT22;21729;58.392;15.656;2024-02-15T06:36:47;0.70;7.10
35607;DHT22;21729;58.392;15.656;2024-02-15T06:39:32;0.70;7.90
35607;DHT22;21729;58.392;15.656;2024-02-15T06:42:06;0.70;8.80
35607;DHT22;21729;58.392;15.656;2024-02-15T06:44:35;0.70;9.60
35607;DHT22;21729;58.392;15.656;2024-02-15T06:47:02;0.70;8.40
35607;DHT22;21729;58.392;15.656;2024-02-15T06:49:29;0.70;6.30
35607;DHT22;21729;58.392;15.656;2024-02-15T06:51:56;0.70;5.80
35607;DHT22;21729;58.392;15.656;2024-02-15T06:54:24;0.90;6.10
35607;DHT22;21729;58.392;15.656;2024-02-15T06:56:51;0.70;4.00
35607;DHT22;21729;58.392;15.656;2024-02-15T06:59:20;0.70;4.50
35607;DHT22;21729;58.392;15.656;2024-02-15T07:01:49;0.80;6.90
35607;DHT22;21729;58.392;15.656;2024-02-15T07:04:17;0.80;5.20
35607;DHT22;21729;58.392;15.656;2024-02-15T07:06:45;0.70;1.00
35607;DHT22;21729;58.392;15.656;2024-02-15T07:09:13;0.80;2.70
35607;DHT22;21729;58.392;15.656;2024-02-15T07:11:43;0.70;1.00
35607;DHT22;21729;58.392;15.656;2024-02-15T07:14:11;0.80;1.00
35607;DHT22;21729;58.392;15.656;2024-02-15T07:16:39;0.70;1.00
35607;DHT22;21729;58.392;15.656;2024-02-15T07:19:08;0.80;1.70
35607;DHT22;21729;58.392;15.656;2024-02-15T07:21:35;0.80;1.00
35607;DHT22;21729;58.392;15.656;2024-02-15T07:24:04;0.80;1.00
35607;DHT22;21729;58.392;15.656;2024-02-15T07:26:31;0.80;1.00
35607;DHT22;21729;58.392;15.656;2024-02-15T07:29:01;0.90;1.00
35607;DHT22;21729;58.392;15.656;2024-02-15T07:31:31;0.90;1.00
35607;DHT22;21729;58.392;15.656;2024-02-15T07:33:58;0.90;1.00
35607;DHT22;21729;58.392;15.656;2024-02-15T07:36:27;0.90;1.00
35607;DHT22;21729;58.392;15.656;2024-02-15T07:38:54;0.90;1.00
35607;DHT22;21729;58.392;15.656;2024-02-15T07:41:26;0.90;1.00
35607;DHT22;21729;58.392;15.656;2024-02-15T07:43:54;0.90;1.00
35607;DHT22;21729;58.392;15.656;2024-02-15T07:46:23;0.90;1.00
35607;DHT22;21729;58.392;15.656;2024-02-15T07:48:50;1.00;1.00
35607;DHT22;21729;58.392;15.656;2024-02-15T07:51:18;1.00;1.00
35607;DHT22;21729;58.392;15.656;2024-02-15T07:53:47;1.00;1.00
35607;DHT22;21729;58.392;15.656;2024-02-15T07:56:16;1.10;1.00
35607;DHT22;21729;58.392;15.656;2024-02-15T07:58:44;1.10;1.00
35607;DHT22;21729;58.392;15.656;2024-02-15T08:01:12;1.20;1.00
35607;DHT22;21729;58.392;15.656;2024-02-15T08:03:40;1.20;1.00
35607;DHT22;21729;58.392;15.656;2024-02-15T08:06:10;1.20;1.00
35607;DHT22;21729;58.392;15.656;2024-02-15T08:08:38;1.30;1.00
35607;DHT22;21729;58.392;15.656;2024-02-15T08:11:08;1.30;1.00
35607;DHT22;21729;58.392;15.656;2024-02-15T08:13:41;1.40;1.00
35607;DHT22;21729;58.392;15.656;2024-02-15T08:16:08;1.60;1.00
35607;DHT22;21729;58.392;15.656;2024-02-15T08:18:35;1.60;1.00
35607;DHT22;21729;58.392;15.656;2024-02-15T08:21:03;1.70;1.00
35607;DHT22;21729;58.392;15.656;2024-02-15T08:23:30;1.70;99.90
35607;DHT22;21729;58.392;15.656;2024-02-15T08:25:58;1.70;99.90
35607;DHT22;21729;58.392;15.656;2024-02-15T08:28:26;1.80;99.90
35607;DHT22;21729;58.392;15.656;2024-02-15T08:30:55;1.80;99.90
35607;DHT22;21729;58.392;15.656;2024-02-15T08:33:23;1.80;99.90
35607;DHT22;21729;58.392;15.656;2024-02-15T08:35:50;1.90;99.90
35607;DHT22;21729;58.392;15.656;2024-02-15T08:38:18;1.90;99.90
35607;DHT22;21729;58.392;15.656;2024-02-15T08:40:46;2.00;99.90
35607;DHT22;21729;58.392;15.656;2024-02-15T08:43:13;2.00;99.90
35607;DHT22;21729;58.392;15.656;2024-02-15T08:45:42;2.00;99.90
35607;DHT22;21729;58.392;15.656;2024-02-15T08:48:09;2.10;99.90
35607;DHT22;21729;58.392;15.656;2024-02-15T08:50:37;2.20;99.90
35607;DHT22;21729;58.392;15.656;2024-02-15T08:53:04;2.20;99.90
35607;DHT22;21729;58.392;15.656;2024-02-15T08:55:32;2.30;99.90
35607;DHT22;21729;58.392;15.656;2024-02-15T08:58:01;2.20;99.90
35607;DHT22;21729;58.392;15.656;2024-02-15T09:00:29;2.30;99.90
35607;DHT22;21729;58.392;15.656;2024-02-15T09:02:58;2.40;99.90
35607;DHT22;21729;58.392;15.656;2024-02-15T09:05:25;2.50;99.90
35607;DHT22;21729;58.392;15.656;2024-02-15T09:07:53;2.40;99.90
35607;DHT22;21729;58.392;15.656;2024-02-15T09:10:20;2.60;99.90
35607;DHT22;21729;58.392;15.656;2024-02-15T09:12:49;2.60;99.90
35607;DHT22;21729;58.392;15.656;2024-02-15T09:15:16;2.60;66.60
35607;DHT22;21729;58.392;15.656;2024-02-15T09:17:44;2.60;32.70
35607;DHT22;21729;58.392;15.656;2024-02-15T09:20:13;2.70;99.90
35607;DHT22;21729;58.392;15.656;2024-02-15T09:22:47;2.80;27.90
35607;DHT22;21729;58.392;15.656;2024-02-15T09:25:15;2.80;1.80
35607;DHT22;21729;58.392;15.656;2024-02-15T09:27:43;2.70;6.20
35607;DHT22;21729;58.392;15.656;2024-02-15T09:30:12;2.60;1.00
35607;DHT22;21729;58.392;15.656;2024-02-15T09:32:39;2.70;5.00
35607;DHT22;21729;58.392;15.656;2024-02-15T09:35:08;2.60;11.50
35607;DHT22;21729;58.392;15.656;2024-02-15T09:37:42;2.70;1.00
35607;DHT22;21729;58.392;15.656;2024-02-15T09:40:11;2.70;1.00
35607;DHT22;21729;58.392;15.656;2024-02-15T09:42:38;2.70;42.50
35607;DHT22;21729;58.392;15.656;2024-02-15T09:45:06;2.90;1.00
35607;DHT22;21729;58.392;15.656;2024-02-15T09:47:37;2.90;1.00
35607;DHT22;21729;58.392;15.656;2024-02-15T09:50:07;2.90;1.00
35607;DHT22;21729;58.392;15.656;2024-02-15T09:52:34;2.80;1.00
35607;DHT22;21729;58.392;15.656;2024-02-15T09:55:05;2.80;1.00
35607;DHT22;21729;58.392;15.656;2024-02-15T09:57:36;2.60;1.00
35607;DHT22;21729;58.392;15.656;2024-02-15T10:00:03;2.70;37.60
35607;DHT22;21729;58.392;15.656;2024-02-15T10:02:33;2.70;15.40
35607;DHT22;21729;58.392;15.656;2024-02-15T10:05:04;2.80;1.00
35607;DHT22;21729;58.392;15.656;2024-02-15T10:07:31;2.90;1.00
35607;DHT22;21729;58.392;15.656;2024-02-15T10:10:16;2.90;1.00
35607;DHT22;21729;58.392;15.656;2024-02-15T10:12:44;2.90;1.00
35607;DHT22;21729;58.392;15.656;2024-02-15T10:15:28;3.00;1.00
35607;DHT22;21729;58.392;15.656;2024-02-15T10:17:56;2.90;1.00
35607;DHT22;21729;58.392;15.656;2024-02-15T10:20:24;2.80;1.00
35607;DHT22;21729;58.392;15.656;2024-02-15T10:22:52;2.80;1.00
35607;DHT22;21729;58.392;15.656;2024-02-15T10:25:22;2.90;24.60
35607;DHT22;21729;58.392;15.656;2024-02-15T10:28:01;3.20;1.00
35607;DHT22;21729;58.392;15.656;2024-02-15T10:30:28;3.30;1.00
35607;DHT22;21729;58.392;15.656;2024-02-15T10:32:58;3.40;1.00
35607;DHT22;21729;58.392;15.656;2024-02-15T10:35:25;3.30;1.00
35607;DHT22;21729;58.392;15.656;2024-02-15T10:37:52;3.40;1.00
35607;DHT22;21729;58.392;15.656;2024-02-15T10:40:32;3.40;1.00
35607;DHT22;21729;58.392;15.656;2024-02-15T10:42:59;3.50;1.00
35607;DHT22;21729;58.392;15.656;2024-02-15T10:45:30;3.40;1.00
35607;DHT22;21729;58.392;15.656;2024-02-15T10:47:58;3.30;1.00
35607;DHT22;21729;58.392;15.656;2024-02-15T10:50:25;3.30;1.00
35607;DHT22;21729;58.392;15.656;2024-02-15T10:52:55;3.10;1.00
35607;DHT22;21729;58.392;15.656;2024-02-15T10:55:35;3.20;1.00
35607;DHT22;21729;58.392;15.656;2024-02-15T10:58:05;3.30;1.00
35607;DHT22;21729;58.392;15.656;2024-02-15T11:00:33;3.30;1.00
35607;DHT22;21729;58.392;15.656;2024-02-15T11:03:04;3.40;1.00
35607;DHT22;21729;58.392;15.656;2024-02-15T11:05:33;3.10;1.00
35607;DHT22;21729;58.392;15.656;2024-02-15T11:08:05;3.10;1.00
35607;DHT22;21729;58.392;15.656;2024-02-15T11:10:35;3.40;1.00
35607;DHT22;21729;58.392;15.656;2024-02-15T11:13:02;3.30;1.00
35607;DHT22;21729;58.392;15.656;2024-02-15T11:15:46;3.10;1.00
35607;DHT22;21729;58.392;15.656;2024-02-15T11:18:42;3.30;1.00
35607;DHT22;21729;58.392;15.656;2024-02-15T11:21:11;3.40;1.00
35607;DHT22;21729;58.392;15.656;2024-02-15T11:23:38;3.30;1.00
35607;DHT22;21729;58.392;15.656;2024-02-15T11:26:44;3.30;1.00
35607;DHT22;21729;58.392;15.656;2024-02-15T11:29:49;3.10;1.00
35607;DHT22;21729;58.392;15.656;2024-02-15T11:32:38;3.00;1.00
35607;DHT22;21729;58.392;15.656;2024-02-15T11:35:09;3.00;1.00
35607;DHT22;21729;58.392;15.656;2024-02-15T11:37:54;2.90;1.00
35607;DHT22;21729;58.392;15.656;2024-02-15T11:40:24;3.00;19.00
35607;DHT22;21729;58.392;15.656;2024-02-15T11:42:55;3.10;1.00
35607;DHT22;21729;58.392;15.656;2024-02-15T11:45:25;3.00;1.00
35607;DHT22;21729;58.392;15.656;2024-02-15T11:47:53;2.90;1.00
35607;DHT22;21729;58.392;15.656;2024-02-15T11:50:22;2.80;1.00
35607;DHT22;21729;58.392;15.656;2024-02-15T11:52:50;2.90;1.00
35607;DHT22;21729;58.392;15.656;2024-02-15T11:55:19;2.90;1.00
35607;DHT22;21729;58.392;15.656;2024-02-15T11:57:57;2.90;22.90
35607;DHT22;21729;58.392;15.656;2024-02-15T12:00:31;3.00;1.00
35607;DHT22;21729;58.392;15.656;2024-02-15T12:03:17;2.80;1.00
35607;DHT22;21729;58.392;15.656;2024-02-15T12:06:02;2.70;7.30
35607;DHT22;21729;58.392;15.656;2024-02-15T12:08:47;2.90;1.00
35607;DHT22;21729;58.392;15.656;2024-02-15T12:11:32;3.10;1.00
35607;DHT22;21729;58.392;15.656;2024-02-15T12:14:18;3.10;1.00
35607;DHT22;21729;58.392;15.656;2024-02-15T12:17:04;3.00;1.00
35607;DHT22;21729;58.392;15.656;2024-02-15T12:19:59;3.10;1.00
35607;DHT22;21729;58.392;15.656;2024-02-15T12:22:31;3.10;1.00
35607;DHT22;21729;58.392;15.656;2024-02-15T12:25:00;3.00;1.00
35607;DHT22;21729;58.392;15.656;2024-02-15T12:27:27;3.10;1.00
35607;DHT22;21729;58.392;15.656;2024-02-15T12:29:57;3.00;1.00
35607;DHT22;21729;58.392;15.656;2024-02-15T12:32:25;3.10;1.00
35607;DHT22;21729;58.392;15.656;2024-02-15T12:34:53;3.10;1.00
35607;DHT22;21729;58.392;15.656;2024-02-15T12:37:20;3.10;1.00
35607;DHT22;21729;58.392;15.656;2024-02-15T12:39:49;3.00;1.00
35607;DHT22;21729;58.392;15.656;2024-02-15T12:42:17;2.90;2.80
35607;DHT22;21729;58.392;15.656;2024-02-15T12:44:46;2.80;1.00
35607;DHT22;21729;58.392;15.656;2024-02-15T12:47:24;2.60;60.80
35607;DHT22;21729;58.392;15.656;2024-02-15T12:49:51;2.60;95.70
35607;DHT22;21729;58.392;15.656;2024-02-15T12:52:36;2.60;99.90
35607;DHT22;21729;58.392;15.656;2024-02-15T12:55:11;2.70;99.90
35607;DHT22;21729;58.392;15.656;2024-02-15T12:57:39;2.90;99.90
35607;DHT22;21729;58.392;15.656;2024-02-15T13:00:11;3.00;68.80
35607;DHT22;21729;58.392;15.656;2024-02-15T13:02:45;3.20;99.90
35607;DHT22;21729;58.392;15.656;2024-02-15T13:05:14;3.20;89.00
35607;DHT22;21729;58.392;15.656;2024-02-15T13:07:44;3.40;1.00
35607;DHT22;21729;58.392;15.656;2024-02-15T13:10:11;3.30;1.00
35607;DHT22;21729;58.392;15.656;2024-02-15T13:12:40;3.30;1.00
35607;DHT22;21729;58.392;15.656;2024-02-15T13:15:10;3.40;1.00
35607;DHT22;21729;58.392;15.656;2024-02-15T13:17:42;3.20;14.00
35607;DHT22;21729;58.392;15.656;2024-02-15T13:20:12;3.20;8.40
35607;DHT22;21729;58.392;15.656;2024-02-15T13:22:40;3.20;1.00
35607;DHT22;21729;58.392;15.656;2024-02-15T13:25:07;3.10;17.60
35607;DHT22;21729;58.392;15.656;2024-02-15T13:27:35;3.00;41.00
35607;DHT22;21729;58.392;15.656;2024-02-15T13:30:04;2.80;12.60
35607;DHT22;21729;58.392;15.656;2024-02-15T13:32:35;2.70;99.90
35607;DHT22;21729;58.392;15.656;2024-02-15T13:35:03;2.60;99.90
35607;DHT22;21729;58.392;15.656;2024-02-15T13:37:42;2.50;99.90
35607;DHT22;21729;58.392;15.656;2024-02-15T13:40:11;2.50;99.90
35607;DHT22;21729;58.392;15.656;2024-02-15T13:42:42;2.40;99.90
35607;DHT22;21729;58.392;15.656;2024-02-15T13:45:15;2.40;99.90
35607;DHT22;21729;58.392;15.656;2024-02-15T13:47:44;2.50;99.90
35607;DHT22;21729;58.392;15.656;2024-02-15T13:50:13;2.60;99.90
35607;DHT22;21729;58.392;15.656;2024-02-15T13:52:42;2.50;99.90
35607;DHT22;21729;58.392;15.656;2024-02-15T13:55:11;2.50;99.90
35607;DHT22;21729;58.392;15.656;2024-02-15T13:57:39;2.60;99.90
35607;DHT22;21729;58.392;15.656;2024-02-15T14:00:07;2.60;99.90
35607;DHT22;21729;58.392;15.656;2024-02-15T14:02:39;2.60;99.90
35607;DHT22;21729;58.392;15.656;2024-02-15T14:05:07;2.50;99.90
35607;DHT22;21729;58.392;15.656;2024-02-15T14:07:35;2.60;99.90
35607;DHT22;21729;58.392;15.656;2024-02-15T14:10:04;2.50;99.90
35607;DHT22;21729;58.392;15.656;2024-02-15T14:12:31;2.50;99.90
35607;DHT22;21729;58.392;15.656;2024-02-15T14:14:58;2.40;99.90
35607;DHT22;21729;58.392;15.656;2024-02-15T14:17:25;2.30;99.90
35607;DHT22;21729;58.392;15.656;2024-02-15T14:19:54;2.30;99.90
35607;DHT22;21729;58.392;15.656;2024-02-15T14:22:22;2.30;99.90
35607;DHT22;21729;58.392;15.656;2024-02-15T14:24:49;2.30;99.90
35607;DHT22;21729;58.392;15.656;2024-02-15T14:27:18;2.20;99.90
35607;DHT22;21729;58.392;15.656;2024-02-15T14:29:45;2.20;99.90
35607;DHT22;21729;58.392;15.656;2024-02-15T14:32:32;2.10;99.90
35607;DHT22;21729;58.392;15.656;2024-02-15T14:35:16;2.10;99.90
35607;DHT22;21729;58.392;15.656;2024-02-15T14:37:43;2.10;99.90
35607;DHT22;21729;58.392;15.656;2024-02-15T14:40:11;2.10;99.90
35607;DHT22;21729;58.392;15.656;2024-02-15T14:42:42;2.10;99.90
35607;DHT22;21729;58.392;15.656;2024-02-15T14:45:10;2.00;99.90
35607;DHT22;21729;58.392;15.656;2024-02-15T14:47:37;2.00;99.90
35607;DHT22;21729;58.392;15.656;2024-02-15T14:50:05;2.00;99.90
35607;DHT22;21729;58.392;15.656;2024-02-15T14:52:34;2.00;99.90
35607;DHT22;21729;58.392;15.656;2024-02-15T14:55:02;1.90;99.90
35607;DHT22;21729;58.392;15.656;2024-02-15T14:57:30;1.80;99.90
35607;DHT22;21729;58.392;15.656;2024-02-15T15:00:00;1.80;99.90
35607;DHT22;21729;58.392;15.656;2024-02-15T15:02:29;1.80;99.90
35607;DHT22;21729;58.392;15.656;2024-02-15T15:04:56;1.70;99.90
35607;DHT22;21729;58.392;15.656;2024-02-15T15:07:41;1.70;99.90
35607;DHT22;21729;58.392;15.656;2024-02-15T15:10:25;1.70;99.90
35607;DHT22;21729;58.392;15.656;2024-02-15T15:13:09;1.70;1.00
35607;DHT22;21729;58.392;15.656;2024-02-15T15:15:38;1.60;1.00
35607;DHT22;21729;58.392;15.656;2024-02-15T15:18:05;1.50;1.00
35607;DHT22;21729;58.392;15.656;2024-02-15T15:20:33;1.50;1.00
35607;DHT22;21729;58.392;15.656;2024-02-15T15:23:02;1.50;1.00
35607;DHT22;21729;58.392;15.656;2024-02-15T15:25:30;1.50;1.00
35607;DHT22;21729;58.392;15.656;2024-02-15T15:27:57;1.50;1.00
35607;DHT22;21729;58.392;15.656;2024-02-15T15:30:24;1.50;1.00
35607;DHT22;21729;58.392;15.656;2024-02-15T15:32:52;1.50;1.00
35607;DHT22;21729;58.392;15.656;2024-02-15T15:35:20;1.50;1.00
35607;DHT22;21729;58.392;15.656;2024-02-15T15:37:47;1.50;1.00
35607;DHT22;21729;58.392;15.656;2024-02-15T15:40:16;1.50;1.00
35607;DHT22;21729;58.392;15.656;2024-02-15T15:42:43;1.50;1.00
35607;DHT22;21729;58.392;15.656;2024-02-15T15:45:10;1.40;1.00
35607;DHT22;21729;58.392;15.656;2024-02-15T15:47:38;1.40;1.00
35607;DHT22;21729;58.392;15.656;2024-02-15T15:50:08;1.40;1.00
35607;DHT22;21729;58.392;15.656;2024-02-15T15:52:37;1.40;1.00
35607;DHT22;21729;58.392;15.656;2024-02-15T15:55:07;1.40;1.00
35607;DHT22;21729;58.392;15.656;2024-02-15T15:57:37;1.40;1.00